sensor_id;sensor_type;location;lat;lon;timestamp;temperature;humidity
1524;DHT22;755;53.658;10.118;2023-03-05T00:03:30;2.70;1.00
1524;DHT22;755;53.658;10.118;2023-03-05T00:13:33;2.70;1.00
1524;DHT22;755;53.658;10.118;2023-03-05T00:23:37;2.70;99.90
1524;DHT22;755;53.658;10.118;2023-03-05T00:33:39;2.70;1.00
1524;DHT22;755;53.658;10.118;2023-03-05T00:43:43;2.70;99.90
1524;DHT22;755;53.658;10.118;2023-03-05T00:53:45;2.70;99.90
1524;DHT22;755;53.658;10.118;2023-03-05T01:03:49;2.80;1.00
1524;DHT22;755;53.658;10.118;2023-03-05T01:13:51;2.60;1.00
1524;DHT22;755;53.658;10.118;2023-03-05T01:23:55;2.50;1.00
1524;DHT22;755;53.658;10.118;2023-03-05T01:33:57;2.40;99.90
1524;DHT22;755;53.658;10.118;2023-03-05T01:44:01;2.30;99.90
1524;DHT22;755;53.658;10.118;2023-03-05T01:54:04;2.20;99.90
1524;DHT22;755;53.658;10.118;2023-03-05T02:04:14;2.20;99.90
1524;DHT22;755;53.658;10.118;2023-03-05T02:14:16;2.20;99.90
1524;DHT22;755;53.658;10.118;2023-03-05T02:24:34;2.10;99.90
1524;DHT22;755;53.658;10.118;2023-03-05T02:34:36;2.00;99.90
1524;DHT22;755;53.658;10.118;2023-03-05T02:44:39;1.90;99.90
1524;DHT22;755;53.658;10.118;2023-03-05T02:54:41;2.00;99.90
1524;DHT22;755;53.658;10.118;2023-03-05T03:04:44;1.90;99.90
1524;DHT22;755;53.658;10.118;2023-03-05T03:14:46;1.80;99.90
1524;DHT22;755;53.658;10.118;2023-03-05T03:24:52;1.80;99.90
1524;DHT22;755;53.658;10.118;2023-03-05T03:34:59;1.70;99.90
1524;DHT22;755;53.658;10.118;2023-03-05T03:45:07;1.50;99.90
1524;DHT22;755;53.658;10.118;2023-03-05T03:55:10;1.40;99.90
1524;DHT22;755;53.658;10.118;2023-03-05T04:05:13;1.30;99.90
1524;DHT22;755;53.658;10.118;2023-03-05T04:15:16;1.30;99.90
1524;DHT22;755;53.658;10.118;2023-03-05T04:25:20;1.40;99.90
1524;DHT22;755;53.658;10.118;2023-03-05T04:35:23;1.40;99.90
1524;DHT22;755;53.658;10.118;2023-03-05T04:45:27;1.40;99.90
1524;DHT22;755;53.658;10.118;2023-03-05T04:55:31;1.30;99.90
1524;DHT22;755;53.658;10.118;2023-03-05T05:05:35;1.30;99.90
1524;DHT22;755;53.658;10.118;2023-03-05T05:15:39;1.40;99.90
1524;DHT22;755;53.658;10.118;2023-03-05T05:25:44;1.40;99.90
1524;DHT22;755;53.658;10.118;2023-03-05T05:35:46;1.30;99.90
1524;DHT22;755;53.658;10.118;2023-03-05T05:45:49;1.30;99.90
1524;DHT22;755;53.658;10.118;2023-03-05T05:55:51;1.30;99.90
1524;DHT22;755;53.658;10.118;2023-03-05T06:05:55;1.30;99.90
1524;DHT22;755;53.658;10.118;2023-03-05T06:15:59;1.40;99.90
1524;DHT22;755;53.658;10.118;2023-03-05T06:26:05;1.50;99.90
1524;DHT22;755;53.658;10.118;2023-03-05T06:36:09;1.60;99.90
1524;DHT22;755;53.658;10.118;2023-03-05T06:46:15;1.60;99.90
1524;DHT22;755;53.658;10.118;2023-03-05T06:56:19;1.60;99.90
1524;DHT22;755;53.658;10.118;2023-03-05T07:06:25;1.80;99.90
1524;DHT22;755;53.658;10.118;2023-03-05T07:16:39;1.90;99.90
1524;DHT22;755;53.658;10.118;2023-03-05T07:26:46;2.00;99.90
1524;DHT22;755;53.658;10.118;2023-03-05T07:36:49;2.20;99.90
1524;DHT22;755;53.658;10.118;2023-03-05T07:46:56;2.20;99.90
1524;DHT22;755;53.658;10.118;2023-03-05T07:57:02;2.30;99.90
1524;DHT22;755;53.658;10.118;2023-03-05T08:07:16;2.50;99.90
1524;DHT22;755;53.658;10.118;2023-03-05T08:17:19;2.80;99.90
1524;DHT22;755;53.658;10.118;2023-03-05T08:27:24;3.20;1.00
1524;DHT22;755;53.658;10.118;2023-03-05T08:37:27;3.30;99.90
1524;DHT22;755;53.658;10.118;2023-03-05T08:47:33;3.30;1.00
1524;DHT22;755;53.658;10.118;2023-03-05T08:57:36;3.50;5.40
1524;DHT22;755;53.658;10.118;2023-03-05T09:07:49;3.50;1.00
1524;DHT22;755;53.658;10.118;2023-03-05T09:18:00;4.00;1.00
1524;DHT22;755;53.658;10.118;2023-03-05T09:28:13;4.00;44.50
1524;DHT22;755;53.658;10.118;2023-03-05T09:38:15;4.60;1.00
1524;DHT22;755;53.658;10.118;2023-03-05T09:48:24;4.20;99.90
1524;DHT22;755;53.658;10.118;2023-03-05T09:58:32;4.30;99.90
1524;DHT22;755;53.658;10.118;2023-03-05T10:08:45;4.10;1.00
1524;DHT22;755;53.658;10.118;2023-03-05T10:18:52;3.90;99.90
1524;DHT22;755;53.658;10.118;2023-03-05T10:29:09;3.60;86.40
1524;DHT22;755;53.658;10.118;2023-03-05T10:39:35;3.50;1.00
1524;DHT22;755;53.658;10.118;2023-03-05T10:49:47;4.20;1.00
1524;DHT22;755;53.658;10.118;2023-03-05T10:59:52;4.50;99.90
1524;DHT22;755;53.658;10.118;2023-03-05T11:10:05;4.60;1.00
1524;DHT22;755;53.658;10.118;2023-03-05T11:20:30;5.00;99.90
1524;DHT22;755;53.658;10.118;2023-03-05T11:30:35;4.50;99.90
1524;DHT22;755;53.658;10.118;2023-03-05T11:40:37;2.30;1.00
1524;DHT22;755;53.658;10.118;2023-03-05T11:50:43;1.60;99.90
1524;DHT22;755;53.658;10.118;2023-03-05T12:00:46;2.50;99.90
1524;DHT22;755;53.658;10.118;2023-03-05T12:10:50;3.00;99.90
1524;DHT22;755;53.658;10.118;2023-03-05T12:20:59;3.60;1.00
1524;DHT22;755;53.658;10.118;2023-03-05T12:31:14;4.10;99.90
1524;DHT22;755;53.658;10.118;2023-03-05T12:41:32;4.50;1.00
1524;DHT22;755;53.658;10.118;2023-03-05T12:51:38;4.90;99.90
1524;DHT22;755;53.658;10.118;2023-03-05T13:01:44;4.00;1.00
1524;DHT22;755;53.658;10.118;2023-03-05T13:11:49;3.30;1.00
1524;DHT22;755;53.658;10.118;2023-03-05T13:22:00;2.90;1.00
1524;DHT22;755;53.658;10.118;2023-03-05T13:32:21;3.00;1.00
1524;DHT22;755;53.658;10.118;2023-03-05T13:42:25;3.20;1.00
1524;DHT22;755;53.658;10.118;2023-03-05T13:52:32;3.50;1.00
1524;DHT22;755;53.658;10.118;2023-03-05T14:02:35;3.90;1.00
1524;DHT22;755;53.658;10.118;2023-03-05T14:12:39;3.90;1.00
1524;DHT22;755;53.658;10.118;2023-03-05T14:22:45;4.10;1.00
1524;DHT22;755;53.658;10.118;2023-03-05T14:32:49;4.30;99.90
1524;DHT22;755;53.658;10.118;2023-03-05T14:42:54;4.50;99.90
1524;DHT22;755;53.658;10.118;2023-03-05T14:53:00;4.60;1.00
1524;DHT22;755;53.658;10.118;2023-03-05T15:03:03;4.70;1.00
1524;DHT22;755;53.658;10.118;2023-03-05T15:13:06;4.70;1.00
1524;DHT22;755;53.658;10.118;2023-03-05T15:23:08;4.60;58.50
1524;DHT22;755;53.658;10.118;2023-03-05T15:33:14;4.40;1.00
1524;DHT22;755;53.658;10.118;2023-03-05T15:43:17;4.40;99.90
1524;DHT22;755;53.658;10.118;2023-03-05T15:53:20;4.20;1.00
1524;DHT22;755;53.658;10.118;2023-03-05T16:03:23;4.10;99.90
1524;DHT22;755;53.658;10.118;2023-03-05T16:13:27;3.90;5.20
1524;DHT22;755;53.658;10.118;2023-03-05T16:23:29;3.80;1.00
1524;DHT22;755;53.658;10.118;2023-03-05T16:33:32;3.70;99.90
1524;DHT22;755;53.658;10.118;2023-03-05T16:43:34;3.60;99.90
1524;DHT22;755;53.658;10.118;2023-03-05T16:53:38;3.60;1.00
1524;DHT22;755;53.658;10.118;2023-03-05T17:03:40;3.50;1.00
1524;DHT22;755;53.658;10.118;2023-03-05T17:13:45;3.40;7.30
1524;DHT22;755;53.658;10.118;2023-03-05T17:23:47;3.30;99.90
1524;DHT22;755;53.658;10.118;2023-03-05T17:33:50;3.20;1.00
1524;DHT22;755;53.658;10.118;2023-03-05T17:43:54;3.10;1.00
1524;DHT22;755;53.658;10.118;2023-03-05T17:53:57;3.00;1.00
1524;DHT22;755;53.658;10.118;2023-03-05T18:04:00;2.90;1.00
1524;DHT22;755;53.658;10.118;2023-03-05T18:14:04;2.70;99.90
1524;DHT22;755;53.658;10.118;2023-03-05T18:24:06;2.60;99.90
1524;DHT22;755;53.658;10.118;2023-03-05T18:34:10;2.40;99.90
1524;DHT22;755;53.658;10.118;2023-03-05T18:44:12;2.40;99.90
1524;DHT22;755;53.658;10.118;2023-03-05T18:54:15;2.50;99.90
1524;DHT22;755;53.658;10.118;2023-03-05T19:04:17;2.40;99.90
1524;DHT22;755;53.658;10.118;2023-03-05T19:14:21;2.30;99.90
1524;DHT22;755;53.658;10.118;2023-03-05T19:24:25;2.20;99.90
1524;DHT22;755;53.658;10.118;2023-03-05T19:34:28;2.20;99.90
1524;DHT22;755;53.658;10.118;2023-03-05T19:44:34;2.10;99.90
1524;DHT22;755;53.658;10.118;2023-03-05T19:54:37;2.10;99.90
1524;DHT22;755;53.658;10.118;2023-03-05T20:04:39;2.00;99.90
1524;DHT22;755;53.658;10.118;2023-03-05T20:14:43;2.00;99.90
1524;DHT22;755;53.658;10.118;2023-03-05T20:24:45;1.90;99.90
1524;DHT22;755;53.658;10.118;2023-03-05T20:34:50;1.70;99.90
1524;DHT22;755;53.658;10.118;2023-03-05T20:44:52;1.50;99.90
1524;DHT22;755;53.658;10.118;2023-03-05T20:54:56;1.20;99.90
1524;DHT22;755;53.658;10.118;2023-03-05T21:04:59;1.20;99.90
1524;DHT22;755;53.658;10.118;2023-03-05T21:15:03;1.40;99.90
1524;DHT22;755;53.658;10.118;2023-03-05T21:25:06;1.30;99.90
1524;DHT22;755;53.658;10.118;2023-03-05T21:35:19;1.10;99.90
1524;DHT22;755;53.658;10.118;2023-03-05T21:45:23;1.10;99.90
1524;DHT22;755;53.658;10.118;2023-03-05T21:55:26;1.10;99.90
1524;DHT22;755;53.658;10.118;2023-03-05T22:05:32;1.30;99.90
1524;DHT22;755;53.658;10.118;2023-03-05T22:15:42;1.30;99.90
1524;DHT22;755;53.658;10.118;2023-03-05T22:25:44;1.30;99.90
1524;DHT22;755;53.658;10.118;2023-03-05T22:35:48;1.40;99.90
1524;DHT22;755;53.658;10.118;2023-03-05T22:45:50;1.00;99.90
1524;DHT22;755;53.658;10.118;2023-03-05T22:55:53;1.00;99.90
1524;DHT22;755;53.658;10.118;2023-03-05T23:05:55;1.20;99.90
1524;DHT22;755;53.658;10.118;2023-03-05T23:15:59;1.30;99.90
1524;DHT22;755;53.658;10.118;2023-03-05T23:26:01;1.30;99.90
1524;DHT22;755;53.658;10.118;2023-03-05T23:36:05;1.30;99.90
1524;DHT22;755;53.658;10.118;2023-03-05T23:46:09;1.40;99.90
1524;DHT22;755;53.658;10.118;2023-03-05T23:56:13;1.30;99.90
